Time;durP1;ratioP1;P1;durP2;ratioP2;P2;SDS_P1;SDS_P2;PMS_P1;PMS_P2;Temp;Humidity;BMP_temperature;BMP_pressure;BME280_temperature;BME280_humidity;BME280_pressure;Samples;Min_cycle;Max_cycle;Signal;HPM_P1;HPM_P2
2022/08/23 00:01:31;;;;;;;3.67;3.37;;;;;;;16.61;82.16;95796.06;5007857;28;24533;-76
2022/08/23 00:04:01;;;;;;;4.82;3.63;;;;;;;16.66;82.59;95793.88;5010289;28;24432;-76
2022/08/23 00:06:31;;;;;;;5.47;3.40;;;;;;;16.58;82.33;95795.50;5008685;28;24451;-76
2022/08/23 00:08:58;;;;;;;5.13;3.50;;;;;;;16.52;83.29;95796.84;5009754;28;24531;-76
2022/08/23 00:11:29;;;;;;;5.35;3.50;;;;;;;16.58;83.04;95788.47;5007442;28;24435;-76
2022/08/23 00:13:57;;;;;;;3.75;3.42;;;;;;;16.59;82.70;95791.91;5013996;28;24444;-76
2022/08/23 00:16:24;;;;;;;7.50;3.65;;;;;;;16.57;82.37;95784.19;5010621;28;24826;-76
2022/08/23 00:18:50;;;;;;;3.80;3.17;;;;;;;16.57;82.13;95785.97;5021950;28;24439;-76
2022/08/23 00:21:17;;;;;;;5.38;3.75;;;;;;;16.81;78.77;95785.69;5016649;28;24995;-76
2022/08/23 00:23:45;;;;;;;6.10;3.40;;;;;;;16.61;78.19;95782.13;5007222;28;24440;-76
2022/08/23 00:26:11;;;;;;;5.60;3.42;;;;;;;16.01;82.65;95775.97;5001923;28;24435;-76
2022/08/23 00:28:39;;;;;;;4.38;3.25;;;;;;;15.81;83.33;95782.88;5006603;28;24506;-76
2022/08/23 00:31:05;;;;;;;4.75;3.70;;;;;;;15.73;85.23;95784.34;5009629;28;24476;-76
2022/08/23 00:33:32;;;;;;;3.75;3.13;;;;;;;15.75;84.09;95781.59;5005436;28;24440;-76
2022/08/23 00:35:58;;;;;;;3.85;3.33;;;;;;;15.80;84.12;95779.44;5002848;28;24440;-76
2022/08/23 00:38:25;;;;;;;5.13;3.72;;;;;;;15.79;84.27;95772.53;5009233;28;24444;-76
2022/08/23 00:40:53;;;;;;;5.20;3.50;;;;;;;15.79;85.94;95779.56;5012853;28;24428;-76
2022/08/23 00:49:09;;;;;;;4.47;3.53;;;;;;;15.66;86.26;95777.97;5014070;28;24483;-75
2022/08/23 00:51:42;;;;;;;3.80;3.42;;;;;;;15.69;87.10;95776.91;5020146;28;24436;-75
2022/08/23 00:54:10;;;;;;;5.87;3.83;;;;;;;15.49;88.39;95768.06;5022836;28;24864;-75
2022/08/23 00:56:39;;;;;;;4.23;3.73;;;;;;;15.38;89.88;95766.31;5012598;28;24957;-76
2022/08/23 00:59:06;;;;;;;5.07;4.13;;;;;;;15.59;89.37;95770.75;5011794;28;24432;-76
2022/08/23 01:01:33;;;;;;;4.30;3.42;;;;;;;15.73;88.12;95773.91;5017779;28;24822;-76
2022/08/23 01:04:00;;;;;;;4.18;3.50;;;;;;;15.85;86.13;95771.22;5021192;28;25008;-75
2022/08/23 01:06:32;;;;;;;4.90;3.50;;;;;;;15.84;85.67;95778.22;5013239;28;24439;-75
2022/08/23 01:09:03;;;;;;;4.43;3.50;;;;;;;15.78;84.67;95777.91;5013149;28;24440;-75
2022/08/23 01:11:35;;;;;;;3.95;3.50;;;;;;;15.65;85.80;95778.09;5005413;28;25011;-75
2022/08/23 01:14:10;;;;;;;4.50;3.30;;;;;;;15.59;86.63;95781.19;5010750;28;24436;-76
2022/08/23 01:16:44;;;;;;;5.57;3.97;;;;;;;15.58;87.14;95776.94;5012429;28;24456;-75
2022/08/23 01:19:16;;;;;;;5.47;3.45;;;;;;;15.72;86.05;95780.09;5012715;28;24628;-75
2022/08/23 01:21:54;;;;;;;4.00;3.47;;;;;;;15.85;85.25;95781.66;5014184;28;25108;-76
2022/08/23 01:24:23;;;;;;;4.53;3.45;;;;;;;15.60;83.91;95773.22;5009725;28;24448;-76
2022/08/23 01:26:49;;;;;;;5.87;3.70;;;;;;;15.38;85.10;95776.75;5007612;28;24481;-76
2022/08/23 01:29:16;;;;;;;5.30;3.40;;;;;;;15.17;86.41;95774.13;5012945;28;24449;-76
2022/08/23 01:31:43;;;;;;;7.63;3.63;;;;;;;15.05;88.66;95775.09;5012118;28;24502;-76
2022/08/23 01:34:12;;;;;;;4.40;3.50;;;;;;;15.08;89.18;95768.81;5009781;28;24439;-76
2022/08/23 01:36:39;;;;;;;3.88;3.58;;;;;;;15.14;90.55;95777.00;5007328;28;24467;-75
2022/08/23 01:39:07;;;;;;;4.93;3.28;;;;;;;15.20;90.55;95776.50;5007930;28;24436;-75
2022/08/23 01:41:37;;;;;;;4.63;3.60;;;;;;;15.31;89.44;95775.59;5018682;28;24460;-76
2022/08/23 01:44:04;;;;;;;3.85;3.38;;;;;;;15.34;89.83;95777.16;5011727;28;24484;-76
2022/08/23 01:46:31;;;;;;;5.05;3.72;;;;;;;15.34;89.85;95777.16;5015554;28;24482;-76
2022/08/23 01:48:58;;;;;;;6.27;3.50;;;;;;;15.38;89.87;95778.53;5011562;28;24989;-76
2022/08/23 01:51:25;;;;;;;3.72;3.40;;;;;;;15.40;90.03;95774.03;5017376;28;24444;-76
2022/08/23 01:53:52;;;;;;;4.95;3.90;;;;;;;15.44;89.68;95773.66;5010664;28;24436;-76
2022/08/23 01:56:20;;;;;;;5.13;3.40;;;;;;;15.51;86.50;95771.38;5014639;28;24436;-76
2022/08/23 01:58:48;;;;;;;4.70;3.78;;;;;;;15.55;84.71;95769.34;5011162;28;24989;-75
2022/08/23 02:01:15;;;;;;;4.32;3.70;;;;;;;15.42;86.55;95772.13;5010999;28;24432;-75
2022/08/23 02:03:42;;;;;;;4.63;3.72;;;;;;;15.04;90.51;95770.84;5020358;28;24444;-75
2022/08/23 02:06:09;;;;;;;5.50;4.05;;;;;;;14.83;92.64;95772.56;5013576;28;24436;-75
2022/08/23 02:11:22;;;;;;;4.57;4.07;;;;;;;14.91;91.93;95778.84;5007722;28;24431;-76
2022/08/23 02:13:52;;;;;;;5.33;3.90;;;;;;;15.17;88.76;95786.34;5016355;28;24448;-75
2022/08/23 02:16:24;;;;;;;4.90;3.80;;;;;;;15.15;88.36;95780.44;5012559;28;24511;-76
2022/08/23 02:18:52;;;;;;;4.65;3.70;;;;;;;14.82;90.95;95781.34;5013691;28;24452;-75
2022/08/23 02:21:19;;;;;;;4.60;3.80;;;;;;;14.57;93.74;95783.25;5003424;28;24532;-75
2022/08/23 02:23:45;;;;;;;4.55;4.03;;;;;;;14.59;94.43;95789.19;5012648;28;24436;-75
2022/08/23 02:26:13;;;;;;;4.72;4.00;;;;;;;14.69;93.61;95786.72;5010791;28;24811;-75
2022/08/23 02:28:40;;;;;;;5.32;4.10;;;;;;;14.70;93.11;95785.75;5015268;28;24795;-75
2022/08/23 02:31:08;;;;;;;4.72;3.80;;;;;;;14.79;93.17;95790.22;5010364;28;24555;-76
2022/08/23 02:33:34;;;;;;;6.78;3.72;;;;;;;14.81;93.21;95793.56;5007949;28;24448;-75
2022/08/23 02:36:01;;;;;;;4.30;3.90;;;;;;;14.83;93.37;95790.81;5013683;28;24984;-75
2022/08/23 02:38:28;;;;;;;8.40;3.97;;;;;;;14.85;93.32;95794.97;5010941;28;25033;-76
2022/08/23 02:40:55;;;;;;;11.75;3.75;;;;;;;14.91;93.47;95799.72;5005389;28;24444;-76
2022/08/23 02:43:22;;;;;;;5.28;4.00;;;;;;;14.96;93.73;95797.53;5006993;28;24439;-75
2022/08/23 02:45:51;;;;;;;5.65;3.67;;;;;;;15.01;93.89;95802.38;5011228;28;24443;-75
2022/08/23 02:48:19;;;;;;;4.57;3.78;;;;;;;15.04;93.93;95806.53;5010558;28;24483;-76
2022/08/23 02:50:46;;;;;;;5.72;3.50;;;;;;;15.05;93.59;95798.59;5005736;28;24981;-75
2022/08/23 02:53:13;;;;;;;4.15;3.75;;;;;;;15.05;93.58;95801.19;4999503;28;24507;-75
2022/08/23 02:55:39;;;;;;;5.03;4.32;;;;;;;14.96;92.19;95800.16;5010129;28;24535;-75
2022/08/23 02:58:06;;;;;;;5.10;3.90;;;;;;;14.93;92.62;95796.97;5012694;28;24838;-75
2022/08/23 03:00:32;;;;;;;4.78;3.72;;;;;;;14.94;92.96;95809.03;5013283;28;24436;-75
2022/08/23 03:02:59;;;;;;;4.60;3.92;;;;;;;14.93;92.97;95803.00;5011533;28;24444;-76
2022/08/23 03:05:26;;;;;;;5.20;4.25;;;;;;;14.95;93.52;95801.13;5012260;28;24978;-75
2022/08/23 03:07:53;;;;;;;4.38;3.65;;;;;;;14.99;92.95;95796.47;5012766;28;25009;-75
2022/08/23 03:10:20;;;;;;;5.35;3.83;;;;;;;14.92;93.11;95801.34;5012800;28;24436;-75
2022/08/23 03:12:46;;;;;;;4.95;3.95;;;;;;;14.92;92.91;95803.13;5010196;28;24443;-75
2022/08/23 03:15:13;;;;;;;4.50;3.65;;;;;;;14.96;92.85;95804.53;5011278;28;24803;-76
2022/08/23 03:17:39;;;;;;;5.15;3.80;;;;;;;14.91;93.22;95809.31;5013074;28;24460;-76
2022/08/23 03:20:08;;;;;;;4.25;3.53;;;;;;;14.87;91.04;95807.88;5010393;28;24445;-75
2022/08/23 03:22:36;;;;;;;4.18;3.78;;;;;;;14.66;91.07;95813.00;5002418;28;24448;-75
2022/08/23 03:25:04;;;;;;;6.53;4.10;;;;;;;14.53;92.70;95813.13;5010091;28;24503;-75
2022/08/23 03:27:31;;;;;;;5.40;3.80;;;;;;;14.38;93.77;95812.50;5016573;28;24437;-75
2022/08/23 03:29:58;;;;;;;5.85;3.90;;;;;;;14.36;94.88;95822.22;5010106;28;24436;-75
2022/08/23 03:32:25;;;;;;;4.45;3.78;;;;;;;14.38;95.48;95822.09;5003466;28;25006;-76
2022/08/23 03:34:51;;;;;;;6.78;4.10;;;;;;;14.41;96.56;95820.09;5011832;28;24858;-76
2022/08/23 03:37:18;;;;;;;4.73;3.97;;;;;;;14.50;96.14;95814.22;5014581;28;24460;-76
2022/08/23 03:39:45;;;;;;;4.63;4.22;;;;;;;14.42;97.10;95808.72;5013695;28;24499;-76
2022/08/23 03:42:12;;;;;;;4.83;4.23;;;;;;;14.27;98.89;95813.34;5015374;28;24529;-76
2022/08/23 03:44:38;;;;;;;5.75;3.63;;;;;;;14.38;98.49;95814.28;5017508;28;24444;-76
2022/08/23 03:47:05;;;;;;;6.82;4.20;;;;;;;14.46;98.06;95815.38;5015694;28;24450;-76
2022/08/23 03:49:32;;;;;;;5.15;3.80;;;;;;;14.54;96.97;95809.59;5011651;28;24503;-76
2022/08/23 03:51:59;;;;;;;4.35;3.92;;;;;;;14.57;96.47;95818.94;5016436;28;24441;-76
2022/08/23 03:54:26;;;;;;;5.50;3.78;;;;;;;14.56;96.72;95825.94;5011287;28;24440;-75
2022/08/23 03:56:58;;;;;;;4.27;3.67;;;;;;;14.54;96.88;95827.84;5006466;28;24433;-76
2022/08/23 03:59:25;;;;;;;4.00;3.60;;;;;;;14.49;97.35;95822.09;5009266;28;24456;-76
2022/08/23 04:01:52;;;;;;;6.25;4.45;;;;;;;14.49;97.27;95820.34;5009974;28;24476;-76
2022/08/23 04:04:18;;;;;;;6.38;3.95;;;;;;;14.46;96.96;95822.34;5019054;28;24447;-76
2022/08/23 04:06:45;;;;;;;5.40;4.05;;;;;;;14.73;92.47;95822.84;5010800;28;24990;-76
2022/08/23 04:09:13;;;;;;;5.43;4.03;;;;;;;14.66;90.21;95823.44;5009749;28;24489;-76
2022/08/23 04:11:39;;;;;;;5.25;3.55;;;;;;;14.16;92.66;95820.31;5009933;28;24678;-76
2022/08/23 04:14:07;;;;;;;4.45;3.60;;;;;;;14.01;92.31;95828.34;5021793;28;24451;-76
2022/08/23 04:16:36;;;;;;;3.78;3.42;;;;;;;13.89;93.49;95829.28;5020991;28;24479;-77
2022/08/23 04:19:03;;;;;;;4.03;3.63;;;;;;;13.81;94.12;95829.03;5012344;28;24459;-74
2022/08/23 04:21:30;;;;;;;4.30;3.90;;;;;;;13.69;96.33;95835.16;5012534;28;24791;-74
2022/08/23 04:23:56;;;;;;;5.13;4.20;;;;;;;13.68;96.81;95836.06;5014443;28;24436;-74
2022/08/23 04:26:23;;;;;;;5.13;3.72;;;;;;;13.66;97.35;95836.19;5018286;28;24443;-74
2022/08/23 04:28:49;;;;;;;6.10;4.47;;;;;;;13.69;97.75;95835.97;5012278;28;24432;-74
2022/08/23 04:31:19;;;;;;;6.88;4.13;;;;;;;13.74;97.61;95838.22;5013868;28;24429;-74
2022/08/23 04:33:46;;;;;;;5.15;4.30;;;;;;;13.79;96.66;95844.75;5015834;28;24432;-74
2022/08/23 04:36:12;;;;;;;10.48;4.53;;;;;;;13.81;97.99;95844.63;5016790;28;24440;-74
2022/08/23 04:38:39;;;;;;;4.40;4.00;;;;;;;13.77;98.94;95846.63;5015344;28;24468;-74
2022/08/23 04:43:50;;;;;;;6.80;4.55;;;;;;;13.53;100.00;95848.44;5012632;28;25023;-74
2022/08/23 04:46:18;;;;;;;4.82;4.22;;;;;;;13.52;100.00;95857.19;5012579;28;25028;-74
2022/08/23 04:48:45;;;;;;;7.50;4.60;;;;;;;13.59;100.00;95853.19;5012120;28;24431;-74
2022/08/23 04:51:13;;;;;;;4.15;3.75;;;;;;;13.70;100.00;95855.84;5010913;28;24437;-74
2022/08/23 04:53:40;;;;;;;7.50;4.07;;;;;;;13.76;100.00;95850.19;5023693;28;25008;-74
2022/08/23 04:56:07;;;;;;;6.00;4.15;;;;;;;13.88;100.00;95852.81;5014492;28;24432;-74
2022/08/23 04:58:35;;;;;;;5.53;4.40;;;;;;;13.97;98.92;95852.13;5009177;28;24471;-74
2022/08/23 05:01:05;;;;;;;5.88;4.30;;;;;;;13.90;99.41;95861.34;5016817;28;24439;-74
2022/08/23 05:03:33;;;;;;;5.30;4.05;;;;;;;13.80;100.00;95866.41;5015967;28;25001;-74
2022/08/23 05:06:00;;;;;;;4.80;3.80;;;;;;;13.72;100.00;95873.94;5025354;28;24447;-74
2022/08/23 05:08:27;;;;;;;6.20;4.57;;;;;;;13.73;100.00;95866.03;5011831;28;24973;-74
2022/08/23 05:10:54;;;;;;;6.40;4.72;;;;;;;13.76;100.00;95873.63;5014804;28;25006;-74
2022/08/23 05:13:21;;;;;;;5.90;4.28;;;;;;;13.86;100.00;95871.16;5012729;28;24436;-74
2022/08/23 05:15:50;;;;;;;5.80;4.35;;;;;;;13.98;100.00;95872.84;5018100;28;24986;-73
2022/08/23 05:18:16;;;;;;;11.63;4.55;;;;;;;14.04;100.00;95874.97;5013171;28;25012;-73
2022/08/23 05:20:45;;;;;;;5.00;4.17;;;;;;;14.17;100.00;95874.91;5012247;28;24803;-75
2022/08/23 05:23:11;;;;;;;4.80;4.30;;;;;;;14.34;100.00;95883.22;5011968;28;24444;-75
2022/08/23 05:25:50;;;;;;;5.07;4.40;;;;;;;14.56;100.00;95879.84;5011980;28;24990;-76
2022/08/23 05:28:20;;;;;;;5.60;4.13;;;;;;;14.64;100.00;95878.28;5012035;28;24499;-76
2022/08/23 05:30:54;;;;;;;5.05;4.40;;;;;;;14.82;100.00;95885.63;5013244;28;24439;-76
2022/08/23 05:33:21;;;;;;;4.80;4.22;;;;;;;14.94;100.00;95887.28;5015136;28;24432;-75
2022/08/23 05:35:49;;;;;;;5.00;4.13;;;;;;;15.09;100.00;95885.25;5006913;28;25032;-70
2022/08/23 05:38:15;;;;;;;5.18;3.70;;;;;;;15.29;100.00;95888.91;5012056;28;24467;-76
2022/08/23 05:40:42;;;;;;;6.35;4.68;;;;;;;15.32;99.04;95881.66;5012529;28;24443;-76
2022/08/23 05:43:08;;;;;;;5.73;4.60;;;;;;;15.33;96.79;95891.13;5015940;28;24469;-76
2022/08/23 05:45:35;;;;;;;5.03;4.22;;;;;;;15.44;95.62;95893.72;5011669;28;24436;-76
2022/08/23 05:48:01;;;;;;;5.80;4.47;;;;;;;15.69;96.27;95895.22;5013746;28;25009;-79
2022/08/23 05:50:28;;;;;;;6.35;4.82;;;;;;;15.90;96.41;95894.41;5014509;28;24443;-78
2022/08/23 05:52:56;;;;;;;5.32;4.68;;;;;;;15.96;95.25;95899.97;5016461;28;24440;-78
2022/08/23 05:55:22;;;;;;;11.85;4.75;;;;;;;16.02;95.33;95905.63;5015162;28;24427;-78
2022/08/23 05:57:49;;;;;;;9.05;4.70;;;;;;;16.00;92.77;95904.94;5015016;28;24451;-79
2022/08/23 06:00:16;;;;;;;9.00;4.55;;;;;;;15.91;91.03;95906.53;5017134;28;24436;-79
2022/08/23 06:02:42;;;;;;;7.68;5.10;;;;;;;16.04;90.19;95912.38;5014492;28;24466;-79
2022/08/23 06:05:09;;;;;;;11.85;5.28;;;;;;;16.18;90.08;95916.47;5015283;28;25023;-80
2022/08/23 06:07:37;;;;;;;8.15;5.07;;;;;;;16.25;88.57;95915.03;5015447;28;24449;-78
2022/08/23 06:10:06;;;;;;;6.80;5.20;;;;;;;16.21;87.38;95909.22;5015631;28;24444;-78
2022/08/23 06:12:33;;;;;;;6.22;5.18;;;;;;;16.02;89.17;95910.84;5019331;28;24436;-79
2022/08/23 06:15:00;;;;;;;5.60;5.00;;;;;;;16.02;88.50;95909.09;5026298;28;24447;-77
2022/08/23 06:17:27;;;;;;;6.55;4.78;;;;;;;16.03;88.48;95915.97;5018431;28;24433;-79
2022/08/23 06:19:53;;;;;;;10.00;5.10;;;;;;;16.12;88.13;95916.97;5019940;28;24460;-79
2022/08/23 06:22:20;;;;;;;7.60;5.20;;;;;;;16.02;89.16;95923.91;5018049;28;24443;-79
2022/08/23 06:24:47;;;;;;;9.48;4.88;;;;;;;16.03;88.92;95915.97;5016010;28;24429;-79
2022/08/23 06:27:15;;;;;;;7.18;5.15;;;;;;;16.07;89.30;95924.38;5017677;28;24441;-78
2022/08/23 06:29:42;;;;;;;7.68;5.05;;;;;;;16.24;88.61;95920.34;5013828;28;24435;-79
2022/08/23 06:32:08;;;;;;;6.75;5.05;;;;;;;16.53;87.15;95918.75;5016132;28;24519;-78
2022/08/23 06:34:37;;;;;;;6.15;4.53;;;;;;;16.85;87.25;95923.91;5014730;28;24443;-79
2022/08/23 06:37:05;;;;;;;5.80;4.70;;;;;;;17.03;85.03;95924.13;5010525;28;24447;-75
2022/08/23 06:39:32;;;;;;;6.25;4.82;;;;;;;17.13;83.63;95921.53;5021453;28;24506;-72
2022/08/23 06:42:00;;;;;;;6.83;4.90;;;;;;;17.12;84.06;95930.34;5003946;28;25069;-76
2022/08/23 06:44:29;;;;;;;5.32;4.75;;;;;;;17.08;83.41;95928.97;5013938;28;24543;-74
2022/08/23 06:46:56;;;;;;;8.48;5.00;;;;;;;17.02;84.52;95932.09;5015741;28;24435;-75
2022/08/23 06:49:23;;;;;;;8.00;5.20;;;;;;;17.05;84.29;95930.03;5011120;28;24421;-74
2022/08/23 06:51:51;;;;;;;8.45;5.18;;;;;;;17.22;84.05;95933.00;5005106;28;24536;-73
2022/08/23 06:54:20;;;;;;;8.10;4.85;;;;;;;17.32;83.54;95928.63;5007365;28;24437;-73
2022/08/23 06:56:48;;;;;;;8.73;5.13;;;;;;;17.40;82.34;95929.59;4996186;28;24816;-73
2022/08/23 06:59:15;;;;;;;8.25;4.80;;;;;;;17.48;81.85;95933.34;5006825;28;24448;-74
2022/08/23 07:01:46;;;;;;;8.20;5.28;;;;;;;17.64;81.48;95936.25;5004113;28;24787;-74
2022/08/23 07:04:15;;;;;;;7.40;4.63;;;;;;;17.76;80.24;95931.75;5008402;28;24440;-74
2022/08/23 07:06:42;;;;;;;6.15;4.45;;;;;;;18.02;79.02;95932.91;5007147;28;24988;-75
2022/08/23 07:09:08;;;;;;;8.00;4.35;;;;;;;18.24;76.26;95936.16;5010569;28;24432;-74
2022/08/23 07:11:36;;;;;;;6.88;3.80;;;;;;;18.41;74.78;95935.47;4998698;28;24812;-73
2022/08/23 07:14:05;;;;;;;7.73;4.07;;;;;;;18.70;73.07;95942.47;5010162;28;24476;-73
2022/08/23 07:16:33;;;;;;;4.73;3.83;;;;;;;18.81;72.20;95940.53;5010763;28;24443;-73
2022/08/23 07:19:00;;;;;;;6.85;3.50;;;;;;;19.10;71.95;95943.06;5014329;28;24993;-73
2022/08/23 07:21:27;;;;;;;5.70;3.67;;;;;;;19.17;70.27;95945.06;5013919;28;24452;-73
2022/08/23 07:23:54;;;;;;;8.23;4.18;;;;;;;19.27;69.92;95940.63;5009435;28;24445;-74
2022/08/23 07:26:21;;;;;;;9.27;3.93;;;;;;;19.38;70.24;95940.41;5007865;28;24444;-73
2022/08/23 07:28:48;;;;;;;5.93;3.63;;;;;;;19.51;69.11;95945.34;5008219;28;24504;-73
2022/08/23 07:31:17;;;;;;;5.72;3.47;;;;;;;20.01;65.94;95939.63;5014161;28;24447;-74
2022/08/23 07:33:45;;;;;;;7.75;3.38;;;;;;;20.41;64.42;95947.06;5010062;28;24448;-74
2022/08/23 07:36:16;;;;;;;6.72;3.70;;;;;;;20.89;62.93;95948.41;5004953;28;25009;-74
2022/08/23 07:38:43;;;;;;;7.28;3.33;;;;;;;21.45;61.73;95949.69;5012385;28;24464;-74
2022/08/23 07:41:11;;;;;;;5.72;3.35;;;;;;;21.81;58.75;95946.84;5013075;28;24472;-74
2022/08/23 07:43:38;;;;;;;7.22;3.05;;;;;;;22.05;55.98;95948.69;5008547;28;24859;-75
2022/08/23 07:46:06;;;;;;;5.17;2.97;;;;;;;22.19;55.31;95948.06;5011496;28;24436;-75
2022/08/23 07:48:33;;;;;;;6.25;2.65;;;;;;;22.63;53.05;95949.56;5012065;28;24440;-75
2022/08/23 07:51:02;;;;;;;3.60;2.60;;;;;;;22.92;52.58;95951.69;5018467;28;24432;-75
2022/08/23 07:53:30;;;;;;;5.25;2.55;;;;;;;23.23;49.90;95949.13;5013485;28;24443;-75
2022/08/23 07:55:57;;;;;;;5.13;2.25;;;;;;;23.09;49.71;95949.81;5008553;28;24433;-75
2022/08/23 07:58:24;;;;;;;3.10;2.40;;;;;;;22.86;48.97;95953.16;5014053;28;24439;-73
2022/08/23 08:00:51;;;;;;;4.13;2.20;;;;;;;23.21;48.43;95948.47;5017532;28;24444;-74
2022/08/23 08:03:18;;;;;;;2.97;2.53;;;;;;;23.49;47.43;95954.16;5018675;28;24463;-74
2022/08/23 08:05:45;;;;;;;3.97;2.33;;;;;;;23.35;47.10;95954.84;5013407;28;24440;-74
2022/08/23 08:08:12;;;;;;;7.68;2.63;;;;;;;23.50;46.69;95955.78;5012227;28;24467;-74
2022/08/23 08:10:42;;;;;;;3.65;2.10;;;;;;;23.30;45.99;95955.38;5007205;28;24432;-74
2022/08/23 08:13:09;;;;;;;6.00;2.30;;;;;;;23.13;45.66;95956.41;5013659;28;24439;-75
2022/08/23 08:15:41;;;;;;;5.10;2.20;;;;;;;23.28;45.05;95954.72;5006156;28;24452;-75
2022/08/23 08:18:07;;;;;;;5.07;2.03;;;;;;;23.41;45.07;95959.47;5012999;28;25012;-74
2022/08/23 08:20:35;;;;;;;3.63;2.00;;;;;;;23.47;43.35;95957.94;5008563;28;24457;-74
2022/08/23 08:23:02;;;;;;;3.65;2.42;;;;;;;23.61;43.74;95958.03;5009167;28;24491;-75
2022/08/23 08:25:32;;;;;;;3.97;1.85;;;;;;;23.89;42.85;95958.44;5013279;28;24433;-74
2022/08/23 08:28:01;;;;;;;5.30;2.00;;;;;;;24.35;42.19;95952.34;5014502;28;24479;-75
2022/08/23 08:30:27;;;;;;;3.38;1.92;;;;;;;24.57;40.78;95956.81;5011651;28;24441;-75
2022/08/23 08:32:54;;;;;;;5.22;2.00;;;;;;;24.53;41.67;95960.00;5012115;28;24439;-74
2022/08/23 08:35:20;;;;;;;4.70;2.30;;;;;;;24.49;39.99;95970.13;5013005;28;24441;-74
2022/08/23 08:37:47;;;;;;;3.30;1.88;;;;;;;24.42;40.88;95965.72;5012903;28;24444;-75
2022/08/23 08:40:16;;;;;;;2.88;1.98;;;;;;;24.53;41.33;95968.78;5019435;28;25049;-75
2022/08/23 08:43:05;;;;;;;3.90;2.13;;;;;;;25.00;40.43;95961.56;5012842;28;24439;-74
2022/08/23 08:45:45;;;;;;;3.40;2.00;;;;;;;25.42;40.53;95974.22;5005144;28;24524;-75
2022/08/23 08:48:15;;;;;;;3.10;2.00;;;;;;;25.17;38.81;95968.34;5004238;28;24955;-74
2022/08/23 08:50:47;;;;;;;3.63;1.80;;;;;;;25.55;39.06;95974.41;5008496;28;24810;-74
2022/08/23 08:53:18;;;;;;;3.80;1.98;;;;;;;25.69;38.28;95972.72;5013153;28;24798;-75
2022/08/23 08:55:49;;;;;;;2.35;1.58;;;;;;;25.88;39.66;95976.66;5006484;28;24444;-75
2022/08/23 08:58:22;;;;;;;5.75;2.15;;;;;;;25.47;37.50;95977.13;5017505;28;24827;-75
2022/08/23 09:00:50;;;;;;;5.15;2.15;;;;;;;25.57;37.92;95972.38;5008657;28;24459;-74
2022/08/23 09:03:19;;;;;;;6.68;2.00;;;;;;;26.29;38.27;95979.56;5018852;28;25012;-74
2022/08/23 09:05:51;;;;;;;3.80;1.90;;;;;;;26.79;35.76;95975.13;5012552;28;24455;-75
2022/08/23 09:08:35;;;;;;;5.07;2.00;;;;;;;27.03;34.03;95973.03;5017528;28;24523;-74
2022/08/23 09:11:10;;;;;;;4.60;1.88;;;;;;;27.15;34.93;95973.38;5008274;28;24810;-77
2022/08/23 09:13:54;;;;;;;4.00;1.92;;;;;;;27.26;33.72;95975.50;5011005;28;24431;-76
2022/08/23 09:16:36;;;;;;;5.85;2.03;;;;;;;27.59;33.13;95980.16;5017377;28;24439;-76
2022/08/23 09:19:03;;;;;;;3.63;1.92;;;;;;;27.55;34.53;95974.44;5003785;28;24862;-76
2022/08/23 09:21:38;;;;;;;7.25;1.85;;;;;;;27.74;33.10;95973.72;5016041;28;24990;-76
2022/08/23 09:24:05;;;;;;;4.13;1.60;;;;;;;27.81;33.11;95972.91;5013637;28;24459;-76
2022/08/23 09:26:31;;;;;;;3.60;1.70;;;;;;;27.73;32.43;95971.22;5012481;28;25061;-76
2022/08/23 09:29:02;;;;;;;3.30;1.95;;;;;;;27.03;33.56;95968.56;5012757;28;24436;-76
2022/08/23 09:31:43;;;;;;;2.53;1.90;;;;;;;27.62;34.04;95969.13;5012214;28;24487;-76
2022/08/23 09:34:15;;;;;;;4.80;2.08;;;;;;;27.85;31.46;95971.50;5012522;28;24432;-76
2022/08/23 09:36:42;;;;;;;3.10;1.80;;;;;;;27.67;31.89;95969.38;5024709;28;25025;-76
2022/08/23 09:39:24;;;;;;;5.05;2.00;;;;;;;27.47;31.77;95963.94;5015313;28;24460;-76
2022/08/23 09:41:51;;;;;;;3.75;2.20;;;;;;;27.12;31.63;95966.63;5003315;28;24802;-75
2022/08/23 09:44:34;;;;;;;3.60;1.80;;;;;;;27.33;32.23;95972.84;5012176;28;24516;-75
2022/08/23 09:47:14;;;;;;;3.80;1.87;;;;;;;27.23;32.03;95963.41;5007303;28;24807;-76
2022/08/23 09:49:43;;;;;;;4.53;1.95;;;;;;;27.25;32.63;95971.19;5010474;28;24424;-76
2022/08/23 09:52:18;;;;;;;3.80;1.70;;;;;;;27.18;32.61;95968.50;5013623;28;24432;-76
2022/08/23 09:54:54;;;;;;;3.35;1.70;;;;;;;26.93;32.46;95962.78;5003342;28;24479;-76
2022/08/23 09:57:24;;;;;;;5.55;1.90;;;;;;;26.72;33.02;95968.94;5015340;28;24791;-76
2022/08/23 09:59:53;;;;;;;5.85;2.08;;;;;;;27.69;32.92;95964.66;5011473;28;24459;-76
2022/08/23 10:02:28;;;;;;;4.67;2.07;;;;;;;27.96;32.51;95958.47;5001798;28;24815;-76
2022/08/23 10:04:59;;;;;;;3.55;1.77;;;;;;;27.93;32.25;95964.19;5011341;28;24795;-75
2022/08/23 10:07:29;;;;;;;4.05;1.73;;;;;;;28.15;31.24;95974.69;5018156;28;24522;-75
2022/08/23 10:10:14;;;;;;;4.90;2.30;;;;;;;27.04;32.65;95958.75;5006158;28;24435;-75
2022/08/23 10:12:41;;;;;;;5.55;2.20;;;;;;;27.04;32.38;95956.09;5016477;28;24444;-73
2022/08/23 10:15:09;;;;;;;2.88;1.80;;;;;;;27.26;32.80;95954.22;5011791;28;24443;-74
2022/08/23 10:17:45;;;;;;;4.70;1.98;;;;;;;26.91;33.44;95959.47;5003068;28;24854;-74
2022/08/23 10:20:23;;;;;;;5.90;2.03;;;;;;;27.71;33.13;95958.13;5006915;28;25108;-74
2022/08/23 10:22:58;;;;;;;2.15;1.70;;;;;;;28.46;31.76;95963.50;5004990;28;24469;-74
2022/08/23 10:25:30;;;;;;;7.40;2.22;;;;;;;28.82;32.18;95960.44;5008232;28;24522;-74
2022/08/23 10:30:58;;;;;;;3.42;1.90;;;;;;;29.27;30.75;95949.94;5010672;28;24572;-74
2022/08/23 10:33:41;;;;;;;2.40;1.63;;;;;;;29.43;30.59;95956.69;5118183;27;24752;-74
2022/08/23 10:36:17;;;;;;;7.03;1.90;;;;;;;29.32;28.90;95955.47;5115813;28;24428;-74
2022/08/23 10:38:47;;;;;;;4.15;1.80;;;;;;;29.43;28.39;95954.00;5110080;27;24453;-74
2022/08/23 10:41:38;;;;;;;3.88;1.88;;;;;;;28.94;28.42;95941.97;5116001;28;24791;-74
2022/08/23 10:44:21;;;;;;;3.25;1.90;;;;;;;27.35;30.09;95947.72;5111905;27;24476;-75
2022/08/23 10:46:56;;;;;;;3.03;1.52;;;;;;;27.73;31.17;95945.44;5112837;28;24807;-74
2022/08/23 10:49:28;;;;;;;2.55;1.77;;;;;;;28.37;29.67;95943.38;5101983;27;24430;-74
2022/08/23 10:51:56;;;;;;;3.60;1.70;;;;;;;28.73;29.83;95944.84;5115319;28;24449;-74
2022/08/23 10:54:34;;;;;;;5.05;1.77;;;;;;;29.02;28.15;95939.13;5117926;28;24430;-75
2022/08/23 10:57:01;;;;;;;3.40;1.85;;;;;;;29.14;30.99;95934.78;5111236;28;24897;-74
2022/08/23 10:59:30;;;;;;;3.42;1.67;;;;;;;29.35;30.05;95938.22;5114252;28;24441;-75
2022/08/23 11:02:18;;;;;;;3.25;1.90;;;;;;;29.42;30.61;95933.69;5113941;28;24430;-74
2022/08/23 11:04:52;;;;;;;2.67;1.80;;;;;;;29.22;28.91;95925.75;5102459;28;24433;-74
2022/08/23 11:07:23;;;;;;;4.93;1.98;;;;;;;28.98;28.25;95929.91;5107465;28;24449;-74
2022/08/23 11:09:57;;;;;;;5.25;1.85;;;;;;;28.67;28.12;95927.84;5111770;27;24522;-74
2022/08/23 11:12:27;;;;;;;4.00;1.50;;;;;;;28.87;28.08;95915.31;5110179;27;24529;-76
2022/08/23 11:15:18;;;;;;;4.97;1.73;;;;;;;28.94;28.91;95916.13;5116103;28;24969;-76
2022/08/23 11:17:56;;;;;;;3.83;1.48;;;;;;;28.92;28.58;95920.03;5105578;28;24479;-75
2022/08/23 11:20:58;;;;;;;4.38;1.75;;;;;;;28.91;30.46;95913.88;5122786;28;24433;-76
2022/08/23 11:23:47;;;;;;;2.88;1.70;;;;;;;28.75;28.79;95921.50;5105361;28;24492;-76
2022/08/23 11:27:05;;;;;;;3.25;1.63;;;;;;;28.80;28.97;95919.03;5113034;28;24603;-76
2022/08/23 11:29:34;;;;;;;2.65;1.50;;;;;;;28.69;28.42;95915.94;5098848;27;24791;-76
2022/08/23 11:32:22;;;;;;;8.83;2.10;;;;;;;28.67;28.73;95925.19;5121204;27;24454;-76
2022/08/23 11:35:23;;;;;;;1.92;1.20;;;;;;;28.43;29.47;95914.09;5124577;27;24445;-76
2022/08/23 11:38:03;;;;;;;5.07;1.77;;;;;;;28.78;29.88;95919.25;5116487;27;24437;-74
2022/08/23 11:41:06;;;;;;;5.00;1.90;;;;;;;28.48;29.70;95920.66;5117740;27;24493;-75
2022/08/23 11:43:37;;;;;;;6.57;2.17;;;;;;;28.02;29.92;95927.53;5121778;27;24434;-76
2022/08/23 11:46:20;;;;;;;4.53;1.90;;;;;;;27.39;29.58;95917.03;5113532;27;24422;-75
2022/08/23 11:48:53;;;;;;;4.95;2.00;;;;;;;27.67;30.71;95918.81;5106806;27;24434;-75
2022/08/23 11:51:30;;;;;;;5.10;1.98;;;;;;;28.12;30.54;95911.19;5121705;27;24524;-76
2022/08/23 11:54:31;;;;;;;2.35;1.45;;;;;;;28.50;29.11;95911.44;5099525;27;24438;-75
2022/08/23 11:57:15;;;;;;;4.93;1.80;;;;;;;28.46;29.83;95915.53;5107238;27;24444;-75
2022/08/23 12:00:02;;;;;;;3.40;1.90;;;;;;;28.60;29.28;95916.38;5103212;27;24437;-75